createdAt,value
2022-07-25T00:01:31.927Z,101058.69
2022-07-25T00:03:58.612Z,101058.69
2022-07-25T00:06:25.208Z,101055.94
2022-07-25T00:08:51.756Z,101055.13
2022-07-25T00:11:18.291Z,101041.38
2022-07-25T00:13:44.899Z,101044.13
2022-07-25T00:16:11.492Z,101044.47
2022-07-25T00:18:38.112Z,101032.28
2022-07-25T00:21:05.158Z,101040.06
2022-07-25T00:23:32.005Z,101032.94
2022-07-25T00:25:58.625Z,101036.50
2022-07-25T00:28:25.133Z,101032.94
2022-07-25T00:30:51.915Z,101027.44
2022-07-25T00:33:18.497Z,101022.75
2022-07-25T00:35:45.155Z,101015.63
2022-07-25T00:38:11.703Z,101012.88
2022-07-25T00:40:38.615Z,101008.47
2022-07-25T00:43:05.285Z,101012.34
2022-07-25T00:45:32.414Z,101006.84
2022-07-25T00:47:58.977Z,101008.47
2022-07-25T00:50:25.907Z,101006.38
2022-07-25T00:52:52.460Z,100991.47
2022-07-25T00:55:20.049Z,100995.38
2022-07-25T00:57:46.616Z,100987.41
2022-07-25T01:02:55.786Z,100981.09
2022-07-25T01:05:22.358Z,100975.59
2022-07-25T01:10:45.690Z,100985.00
2022-07-25T01:13:12.546Z,100980.66
2022-07-25T01:15:39.464Z,100979.34
2022-07-25T01:18:06.531Z,100965.25
2022-07-25T01:20:33.656Z,100965.59
2022-07-25T01:23:00.947Z,100973.84
2022-07-25T01:25:28.576Z,100951.81
2022-07-25T01:27:56.132Z,100940.00
2022-07-25T01:30:24.676Z,100945.00
2022-07-25T01:32:51.867Z,100945.00
2022-07-25T01:35:18.446Z,100934.00
2022-07-25T01:37:45.870Z,100935.94
2022-07-25T01:40:13.792Z,100934.34
2022-07-25T01:42:40.613Z,100942.59
2022-07-25T01:45:07.974Z,100939.34
2022-07-25T01:47:34.537Z,100952.00
2022-07-25T01:50:01.054Z,100935.81
2022-07-25T01:55:19.089Z,100922.38
2022-07-25T01:57:49.855Z,100915.41
2022-07-25T02:00:17.693Z,100919.28
2022-07-25T02:02:45.790Z,100914.13
2022-07-25T02:05:13.781Z,100914.13
2022-07-25T02:07:40.548Z,100915.28
2022-07-25T02:10:07.528Z,100913.31
2022-07-25T02:12:34.251Z,100909.75
2022-07-25T02:15:00.733Z,100905.72
2022-07-25T02:17:27.443Z,100905.38
2022-07-25T02:19:53.998Z,100906.53
2022-07-25T02:22:20.518Z,100902.16
2022-07-25T02:24:47.082Z,100904.41
2022-07-25T02:27:13.598Z,100901.34
2022-07-25T02:29:40.153Z,100900.53
2022-07-25T02:32:06.750Z,100895.03
2022-07-25T02:34:33.277Z,100893.41
2022-07-25T02:36:59.815Z,100892.28
2022-07-25T02:39:26.312Z,100889.84
2022-07-25T02:41:52.811Z,100892.59
2022-07-25T02:44:19.351Z,100887.09
2022-07-25T02:46:45.927Z,100888.25
2022-07-25T02:49:13.511Z,100896.81
2022-07-25T02:51:40.065Z,100900.41
2022-07-25T02:54:06.558Z,100898.44
2022-07-25T02:56:33.307Z,100894.91
2022-07-25T02:59:00.157Z,100899.56
2022-07-25T03:01:27.064Z,100904.25
2022-07-25T03:03:53.681Z,100898.75
2022-07-25T03:06:20.422Z,100892.47
2022-07-25T03:08:46.951Z,100888.91
2022-07-25T03:11:14.270Z,100896.34
2022-07-25T03:13:40.829Z,100890.84
2022-07-25T03:16:08.051Z,100886.16
2022-07-25T03:18:34.563Z,100891.66
2022-07-25T03:21:01.137Z,100891.66
2022-07-25T03:23:28.387Z,100872.72
2022-07-25T03:25:55.886Z,100884.06
2022-07-25T03:28:23.039Z,100891.16
2022-07-25T03:30:49.645Z,100880.50
2022-07-25T03:33:16.220Z,100878.41
2022-07-25T03:35:44.368Z,100882.44
2022-07-25T03:38:11.070Z,100887.94
2022-07-25T03:40:37.727Z,100893.44
2022-07-25T03:43:04.267Z,100900.41
2022-07-25T03:45:31.030Z,100893.75
2022-07-25T03:47:57.542Z,100894.09
2022-07-25T03:50:24.069Z,100893.28
2022-07-25T03:52:50.580Z,100885.84
2022-07-25T03:55:17.083Z,100885.03
2022-07-25T03:57:43.609Z,100887.78
2022-07-25T04:00:12.274Z,100881.78
2022-07-25T04:02:39.378Z,100884.53
2022-07-25T04:05:07.705Z,100882.94
2022-07-25T04:07:34.880Z,100879.03
2022-07-25T04:10:01.622Z,100879.38
2022-07-25T04:12:28.164Z,100877.44
2022-07-25T04:17:36.015Z,100870.00
2022-07-25T04:20:06.993Z,100873.88
2022-07-25T04:22:34.187Z,100878.59
2022-07-25T04:25:01.030Z,100871.94
2022-07-25T04:27:27.579Z,100878.59
2022-07-25T04:29:54.502Z,100868.72
2022-07-25T04:32:23.479Z,100865.97
2022-07-25T04:34:52.273Z,100861.28
2022-07-25T04:37:18.839Z,100864.34
2022-07-25T04:39:45.352Z,100863.53
2022-07-25T04:42:11.911Z,100867.09
2022-07-25T04:44:38.433Z,100873.38
2022-07-25T04:47:05.393Z,100864.53
2022-07-25T04:49:32.008Z,100867.47
2022-07-25T04:51:58.527Z,100874.75
2022-07-25T04:54:25.146Z,100861.13
2022-07-25T04:56:51.665Z,100864.53
2022-07-25T04:59:18.229Z,100870.69
2022-07-25T05:01:44.802Z,100872.16
2022-07-25T05:04:11.354Z,100867.63
2022-07-25T05:06:37.968Z,100872.16
2022-07-25T05:09:04.578Z,100870.06
2022-07-25T05:11:31.124Z,100872.00
2022-07-25T05:13:57.620Z,100873.78
2022-07-25T05:16:24.256Z,100878.97
2022-07-25T05:18:50.885Z,100872.81
2022-07-25T05:21:17.413Z,100875.88
2022-07-25T05:23:44.186Z,100878.97
2022-07-25T05:26:10.693Z,100879.78
2022-07-25T05:28:37.230Z,100876.53
2022-07-25T05:31:03.974Z,100880.25
2022-07-25T05:33:30.529Z,100883.00
2022-07-25T05:35:57.179Z,100888.84
2022-07-25T05:38:23.827Z,100890.44
2022-07-25T05:40:52.234Z,100891.59
2022-07-25T05:43:19.284Z,100882.84
2022-07-25T05:45:47.401Z,100883.50
2022-07-25T05:48:14.794Z,100884.28
2022-07-25T05:50:41.672Z,100884.97
2022-07-25T05:53:08.188Z,100888.50
2022-07-25T05:55:34.825Z,100876.06
2022-07-25T05:58:06.793Z,100883.16
2022-07-25T06:00:33.406Z,100886.25
2022-07-25T06:03:00.677Z,100892.88
2022-07-25T06:05:27.608Z,100875.88
2022-07-25T06:07:54.266Z,100877.50
2022-07-25T06:10:21.277Z,100875.09
2022-07-25T06:12:47.927Z,100885.53
2022-07-25T06:15:22.159Z,100881.19
2022-07-25T06:17:52.972Z,100884.28
2022-07-25T06:20:19.786Z,100885.38
2022-07-25T06:22:46.305Z,100883.78
2022-07-25T06:25:12.942Z,100885.06
2022-07-25T06:27:39.610Z,100881.19
2022-07-25T06:30:18.644Z,100880.38
2022-07-25T06:32:46.813Z,100881.34
2022-07-25T06:35:13.338Z,100889.28
2022-07-25T06:37:39.961Z,100887.00
2022-07-25T06:40:07.814Z,100883.31
2022-07-25T06:42:41.729Z,100885.25
2022-07-25T06:45:12.331Z,100879.59
2022-07-25T06:47:40.303Z,100877.59
2022-07-25T06:50:08.612Z,100880.06
2022-07-25T06:52:39.567Z,100883.28
2022-07-25T06:55:07.761Z,100891.84
2022-07-25T06:57:34.322Z,100897.81
2022-07-25T07:00:01.105Z,100889.56
2022-07-25T07:02:27.611Z,100904.44
2022-07-25T07:04:54.136Z,100893.63
2022-07-25T07:07:20.948Z,100891.69
2022-07-25T07:09:47.444Z,100894.88
2022-07-25T07:12:13.934Z,100900.88
2022-07-25T07:14:40.465Z,100897.97
2022-07-25T07:17:06.944Z,100894.25
2022-07-25T07:19:33.424Z,100896.03
2022-07-25T07:22:00.045Z,100903.13
2022-07-25T07:24:26.826Z,100902.16
2022-07-25T07:26:54.465Z,100897.50
2022-07-25T07:29:21.217Z,100897.00
2022-07-25T07:31:47.791Z,100899.56
2022-07-25T07:34:16.577Z,100901.69
2022-07-25T07:36:43.572Z,100890.53
2022-07-25T07:39:10.193Z,100892.47
2022-07-25T07:41:36.746Z,100899.25
2022-07-25T07:44:03.711Z,100896.34
2022-07-25T07:46:30.244Z,100897.81
2022-07-25T07:48:56.813Z,100904.09
2022-07-25T07:51:23.344Z,100900.22
2022-07-25T07:54:08.728Z,100900.53
2022-07-25T07:56:35.324Z,100892.47
2022-07-25T07:59:01.822Z,100885.69
2022-07-25T08:01:28.522Z,100882.59
2022-07-25T08:03:55.132Z,100873.25
2022-07-25T08:06:21.765Z,100882.13
2022-07-25T08:08:48.256Z,100888.09
2022-07-25T08:11:14.816Z,100898.25
2022-07-25T08:13:41.355Z,100898.09
2022-07-25T08:16:08.181Z,100891.81
2022-07-25T08:18:34.820Z,100892.31
2022-07-25T08:21:06.429Z,100904.91
2022-07-25T08:23:39.177Z,100915.88
2022-07-25T08:26:06.754Z,100905.53
2022-07-25T08:28:33.396Z,100897.47
2022-07-25T08:31:00.454Z,100902.94
2022-07-25T08:33:27.186Z,100906.81
2022-07-25T08:35:55.606Z,100894.38
2022-07-25T08:38:24.034Z,100910.06
2022-07-25T08:40:51.354Z,100891.97
2022-07-25T08:43:19.503Z,100902.50
2022-07-25T08:45:54.207Z,100901.63
2022-07-25T08:48:23.882Z,100907.31
2022-07-25T08:50:51.535Z,100892.13
2022-07-25T08:53:35.896Z,100896.16
2022-07-25T08:56:16.085Z,100906.19
2022-07-25T08:58:45.670Z,100908.28
2022-07-25T09:01:13.678Z,100911.03
2022-07-25T09:03:42.192Z,100916.66
2022-07-25T09:06:35.403Z,100910.03
2022-07-25T09:09:05.373Z,100923.41
2022-07-25T09:11:34.887Z,100924.66
2022-07-25T09:14:10.621Z,100938.44
2022-07-25T09:16:40.365Z,100934.41
2022-07-25T09:19:10.684Z,100932.97
2022-07-25T09:21:37.699Z,100950.72
2022-07-25T09:24:11.454Z,100939.31
2022-07-25T09:26:50.356Z,100948.63
2022-07-25T09:29:23.342Z,100939.59
2022-07-25T09:31:50.642Z,100946.22
2022-07-25T09:34:38.915Z,100946.13
2022-07-25T09:37:08.278Z,100955.91
2022-07-25T09:39:46.009Z,100953.50
2022-07-25T09:42:16.134Z,100940.25
2022-07-25T09:44:43.017Z,100949.09
2022-07-25T09:47:13.836Z,100945.41
2022-07-25T09:49:42.168Z,100947.50
2022-07-25T09:52:09.881Z,100957.38
2022-07-25T09:54:36.515Z,100949.31
2022-07-25T09:57:03.172Z,100960.44
2022-07-25T09:59:29.696Z,100960.44
2022-07-25T10:02:08.399Z,100964.94
2022-07-25T10:04:59.695Z,100969.31
2022-07-25T10:07:31.180Z,100982.22
2022-07-25T10:09:59.827Z,100974.94
2022-07-25T10:12:26.386Z,100994.78
2022-07-25T10:15:13.497Z,100998.34
2022-07-25T10:17:41.858Z,100984.13
2022-07-25T10:20:10.259Z,100995.59
2022-07-25T10:23:00.072Z,100994.78
2022-07-25T10:25:27.057Z,100995.59
2022-07-25T10:28:01.179Z,100990.91
2022-07-25T10:30:35.278Z,100989.31
2022-07-25T10:33:06.580Z,100990.91
2022-07-25T10:35:33.410Z,101001.09
2022-07-25T10:38:04.122Z,101003.84
2022-07-25T10:40:37.024Z,101009.66
2022-07-25T10:43:19.473Z,101017.56
2022-07-25T10:45:53.498Z,101008.66
2022-07-25T10:48:23.322Z,101005.59
2022-07-25T10:51:03.101Z,101010.06
2022-07-25T10:53:47.004Z,101009.97
2022-07-25T10:56:13.507Z,101021.63
2022-07-25T10:58:44.459Z,101016.31
2022-07-25T11:01:13.631Z,101028.28
2022-07-25T11:03:45.881Z,101021.66
2022-07-25T11:06:15.110Z,101020.22
2022-07-25T11:08:43.464Z,101039.94
2022-07-25T11:11:11.518Z,101027.84
2022-07-25T11:13:40.328Z,101016.84
2022-07-25T11:16:07.730Z,101024.44
2022-07-25T11:18:39.986Z,101024.13
2022-07-25T11:21:08.777Z,101025.75
2022-07-25T11:23:36.556Z,101026.25
2022-07-25T11:26:13.324Z,101034.50
2022-07-25T11:28:42.415Z,101026.91
2022-07-25T11:31:09.231Z,101034.00
2022-07-25T11:33:38.623Z,101040.00
2022-07-25T11:36:06.229Z,101042.75
2022-07-25T11:38:33.715Z,101034.53
2022-07-25T11:41:00.625Z,101028.69
2022-07-25T11:43:27.454Z,101026.44
2022-07-25T11:46:03.397Z,101037.13
2022-07-25T11:48:35.559Z,101039.56
2022-07-25T11:51:16.285Z,101052.16
2022-07-25T11:53:50.664Z,101043.91
2022-07-25T11:56:41.446Z,101014.19
2022-07-25T11:59:07.161Z,101029.22
2022-07-25T12:01:36.307Z,101030.88
2022-07-25T12:04:28.903Z,101033.59
2022-07-25T12:07:05.921Z,101064.31
2022-07-25T12:09:32.447Z,101051.06
2022-07-25T12:12:04.288Z,101035.53
2022-07-25T12:14:35.230Z,101043.59
2022-07-25T12:17:02.141Z,101042.78
2022-07-25T12:19:28.712Z,101048.09
2022-07-25T12:21:55.241Z,101031.31
2022-07-25T12:24:21.836Z,101051.03
2022-07-25T12:26:48.445Z,101040.38
2022-07-25T12:29:14.983Z,101045.25
2022-07-25T12:31:41.595Z,101056.75
2022-07-25T12:34:08.133Z,101043.50
2022-07-25T12:36:41.113Z,101053.88
2022-07-25T12:39:08.074Z,101050.31
2022-07-25T12:41:34.867Z,101045.94
2022-07-25T12:44:02.679Z,101040.44
2022-07-25T12:46:29.959Z,101054.03
2022-07-25T12:48:56.640Z,101035.63
2022-07-25T12:51:23.299Z,101036.94
2022-07-25T12:53:49.839Z,101066.81
2022-07-25T12:56:16.363Z,101062.63
2022-07-25T12:58:43.038Z,101063.44
2022-07-25T13:01:09.716Z,101034.34
2022-07-25T13:03:36.273Z,101050.19
2022-07-25T13:06:02.784Z,101055.38
2022-07-25T13:08:29.332Z,101053.94
2022-07-25T13:10:55.832Z,101057.50
2022-07-25T13:13:22.512Z,101033.22
2022-07-25T13:15:49.110Z,101052.97
2022-07-25T13:18:15.684Z,101049.06
2022-07-25T13:20:42.274Z,101043.25
2022-07-25T13:23:08.818Z,101050.84
2022-07-25T13:25:36.403Z,101066.56
2022-07-25T13:28:10.903Z,101088.53
2022-07-25T13:30:37.999Z,101068.16
2022-07-25T13:33:04.686Z,101059.09
2022-07-25T13:35:38.150Z,101056.06
2022-07-25T13:38:05.237Z,101072.72
2022-07-25T13:40:32.341Z,101070.78
2022-07-25T13:42:58.889Z,101072.06
2022-07-25T13:45:25.495Z,101067.41
2022-07-25T13:48:12.233Z,101070.94
2022-07-25T13:50:38.748Z,101069.00
2022-07-25T13:53:06.176Z,101083.72
2022-07-25T13:55:32.959Z,101081.78
2022-07-25T13:57:59.614Z,101081.78
2022-07-25T14:00:26.188Z,101086.16
2022-07-25T14:02:52.831Z,101087.78
2022-07-25T14:05:19.534Z,101092.94
2022-07-25T14:07:46.090Z,101104.75
2022-07-25T14:10:12.724Z,101097.66
2022-07-25T14:12:42.134Z,101084.38
2022-07-25T14:15:09.361Z,101094.72
2022-07-25T14:17:36.020Z,101090.03
2022-07-25T14:20:03.638Z,101098.78
2022-07-25T14:22:30.138Z,101102.34
2022-07-25T14:24:56.925Z,101093.75
2022-07-25T14:27:23.981Z,101094.59
2022-07-25T14:29:50.822Z,101100.28
2022-07-25T14:32:17.438Z,101107.41
2022-07-25T14:34:44.269Z,101098.81
2022-07-25T14:37:11.148Z,101107.56
2022-07-25T14:39:37.705Z,101108.06
2022-07-25T14:42:04.718Z,101098.34
2022-07-25T14:44:31.237Z,101099.97
2022-07-25T14:46:58.980Z,101107.56
2022-07-25T14:49:25.772Z,101089.47
2022-07-25T14:51:52.576Z,101095.44
2022-07-25T14:54:19.307Z,101095.94
2022-07-25T14:56:46.077Z,101092.84
2022-07-25T14:59:12.812Z,101105.50
2022-07-25T15:01:40.061Z,101100.00
2022-07-25T15:04:06.655Z,101105.97
2022-07-25T15:06:33.249Z,101106.47
2022-07-25T15:08:59.746Z,101097.06
2022-07-25T15:11:26.278Z,101099.47
2022-07-25T15:13:53.233Z,101108.53
2022-07-25T15:16:20.009Z,101122.00
2022-07-25T15:19:14.371Z,101123.94
2022-07-25T15:21:34.248Z,101105.97
2022-07-25T15:24:00.816Z,101113.41
2022-07-25T15:26:27.677Z,101111.16
2022-07-25T15:28:54.580Z,101107.25
2022-07-25T15:31:23.511Z,101115.19
2022-07-25T15:33:50.557Z,101116.81
2022-07-25T15:36:19.220Z,101119.25
2022-07-25T15:38:46.103Z,101122.78
2022-07-25T15:41:13.201Z,101129.09
2022-07-25T15:43:40.626Z,101130.75
2022-07-25T15:46:11.117Z,101131.06
2022-07-25T15:48:37.863Z,101123.28
2022-07-25T15:51:04.747Z,101134.78
2022-07-25T15:53:31.332Z,101141.91
2022-07-25T15:55:58.143Z,101133.97
2022-07-25T15:58:24.776Z,101132.03
2022-07-25T16:00:51.332Z,101131.38
2022-07-25T16:03:18.167Z,101127.50
2022-07-25T16:05:45.078Z,101136.25
2022-07-25T16:08:11.798Z,101145.31
2022-07-25T16:10:38.628Z,101140.59
2022-07-25T16:13:05.193Z,101143.38
2022-07-25T16:15:31.959Z,101143.69
2022-07-25T16:18:02.589Z,101142.56
2022-07-25T16:20:33.257Z,101150.50
2022-07-25T16:23:00.874Z,101138.66
2022-07-25T16:25:28.314Z,101143.06
2022-07-25T16:27:55.683Z,101147.75
2022-07-25T16:30:22.356Z,101141.09
2022-07-25T16:32:48.943Z,101143.88
2022-07-25T16:35:15.797Z,101146.63
2022-07-25T16:37:42.532Z,101137.84
2022-07-25T16:40:09.986Z,101145.81
2022-07-25T16:42:39.604Z,101131.25
2022-07-25T16:45:06.929Z,101151.31
2022-07-25T16:47:33.489Z,101149.38
2022-07-25T16:50:00.266Z,101148.22
2022-07-25T16:52:26.941Z,101157.63
2022-07-25T16:54:53.538Z,101160.38
2022-07-25T16:57:24.778Z,101155.69
2022-07-25T16:59:53.239Z,101152.13
2022-07-25T17:02:20.369Z,101160.38
2022-07-25T17:04:48.391Z,101149.66
2022-07-25T17:07:15.077Z,101148.88
2022-07-25T17:09:41.876Z,101157.94
2022-07-25T17:12:08.616Z,101156.81
2022-07-25T17:14:35.146Z,101162.31
2022-07-25T17:17:01.804Z,101153.25
2022-07-25T17:19:28.552Z,101156.00
2022-07-25T17:21:55.080Z,101161.81
2022-07-25T17:24:21.621Z,101159.06
2022-07-25T17:26:48.164Z,101164.91
2022-07-25T17:29:14.677Z,101168.47
2022-07-25T17:31:41.404Z,101159.88
2022-07-25T17:34:08.245Z,101172.03
2022-07-25T17:36:35.031Z,101164.09
2022-07-25T17:39:01.713Z,101162.47
2022-07-25T17:41:28.305Z,101155.84
2022-07-25T17:43:54.807Z,101164.91
2022-07-25T17:46:21.462Z,101167.34
2022-07-25T17:48:48.104Z,101172.03
2022-07-25T17:51:14.721Z,101182.22
2022-07-25T17:53:41.278Z,101175.94
2022-07-25T17:56:08.489Z,101172.38
2022-07-25T17:58:35.402Z,101182.53
2022-07-25T18:01:03.958Z,101177.88
2022-07-25T18:03:33.583Z,101177.88
2022-07-25T18:06:00.356Z,101173.16
2022-07-25T18:08:30.466Z,101171.06
2022-07-25T18:10:56.887Z,101170.72
2022-07-25T18:13:23.430Z,101178.50
2022-07-25T18:15:50.815Z,101174.63
2022-07-25T18:18:20.731Z,101177.03
2022-07-25T18:20:47.965Z,101184.81
2022-07-25T18:23:14.590Z,101179.31
2022-07-25T18:25:41.193Z,101182.41
2022-07-25T18:28:07.675Z,101186.78
2022-07-25T18:30:34.178Z,101198.59
2022-07-25T18:33:00.717Z,101178.50
2022-07-25T18:35:27.341Z,101196.47
2022-07-25T18:37:54.129Z,101204.91
2022-07-25T18:40:21.588Z,101197.28
2022-07-25T18:42:48.160Z,101197.28
2022-07-25T18:45:14.718Z,101196.16
2022-07-25T18:47:41.424Z,101195.34
2022-07-25T18:50:08.541Z,101201.69
2022-07-25T18:52:36.109Z,101205.53
2022-07-25T18:55:04.468Z,101196.47
2022-07-25T18:57:31.109Z,101199.22
2022-07-25T19:00:02.416Z,101201.97
2022-07-25T19:02:29.860Z,101200.38
2022-07-25T19:04:56.603Z,101198.75
2022-07-25T19:07:23.614Z,101206.19
2022-07-25T19:09:50.133Z,101201.50
2022-07-25T19:12:16.656Z,101205.06
2022-07-25T19:14:43.194Z,101211.69
2022-07-25T19:17:09.792Z,101221.06
2022-07-25T19:19:36.466Z,101217.19
2022-07-25T19:22:03.093Z,101211.22
2022-07-25T19:24:31.350Z,101213.63
2022-07-25T19:26:58.903Z,101208.44
2022-07-25T19:29:26.681Z,101215.91
2022-07-25T19:31:53.598Z,101225.78
2022-07-25T19:34:20.178Z,101221.41
2022-07-25T19:36:46.937Z,101227.72
2022-07-25T19:39:13.615Z,101230.47
2022-07-25T19:41:44.780Z,101232.41
2022-07-25T19:44:13.345Z,101236.78
2022-07-25T19:46:39.981Z,101233.22
2022-07-25T19:49:06.752Z,101237.91
2022-07-25T19:51:33.644Z,101248.13
2022-07-25T19:54:03.456Z,101237.91
2022-07-25T19:56:31.268Z,101237.41
2022-07-25T19:58:58.359Z,101248.44
2022-07-25T20:01:24.988Z,101251.69
2022-07-25T20:03:51.621Z,101244.53
2022-07-25T20:06:20.651Z,101254.75
2022-07-25T20:08:47.830Z,101252.78
2022-07-25T20:11:15.350Z,101259.44
2022-07-25T20:13:42.076Z,101265.28
2022-07-25T20:16:08.947Z,101260.56
2022-07-25T20:18:35.529Z,101252.66
2022-07-25T20:21:02.193Z,101255.41
2022-07-25T20:23:28.815Z,101250.72
2022-07-25T20:25:55.613Z,101252.66
2022-07-25T20:28:22.114Z,101254.75
2022-07-25T20:30:50.344Z,101258.28
2022-07-25T20:33:17.462Z,101251.19
2022-07-25T20:35:44.042Z,101257.50
2022-07-25T20:38:10.636Z,101250.72
2022-07-25T20:40:49.293Z,101250.19
2022-07-25T20:43:16.507Z,101251.81
2022-07-25T20:45:43.237Z,101257.31
2022-07-25T20:48:10.277Z,101261.03
2022-07-25T20:50:38.124Z,101262.34
2022-07-25T20:53:06.055Z,101262.34
2022-07-25T20:55:33.278Z,101267.34
2022-07-25T20:58:00.268Z,101264.28
2022-07-25T21:00:28.754Z,101259.41
2022-07-25T21:02:55.565Z,101261.03
2022-07-25T21:05:22.644Z,101268.81
2022-07-25T21:07:49.898Z,101261.38
2022-07-25T21:10:16.692Z,101264.13
2022-07-25T21:12:45.211Z,101260.88
2022-07-25T21:15:11.990Z,101265.72
2022-07-25T21:17:39.068Z,101271.88
2022-07-25T21:20:06.662Z,101283.38
2022-07-25T21:22:33.226Z,101281.75
2022-07-25T21:24:59.871Z,101275.44
2022-07-25T21:27:26.378Z,101276.09
2022-07-25T21:29:52.905Z,101273.81
2022-07-25T21:32:20.010Z,101274.31
2022-07-25T21:34:47.251Z,101273.19
2022-07-25T21:37:13.857Z,101282.56
2022-07-25T21:39:40.385Z,101279.31
2022-07-25T21:42:09.953Z,101272.19
2022-07-25T21:44:39.431Z,101278.50
2022-07-25T21:47:06.481Z,101283.50
2022-07-25T21:49:51.438Z,101272.19
2022-07-25T21:52:18.425Z,101283.22
2022-07-25T21:54:46.024Z,101276.09
2022-07-25T21:57:14.201Z,101275.25
2022-07-25T21:59:44.873Z,101272.03
2022-07-25T22:02:11.855Z,101277.53
2022-07-25T22:04:38.488Z,101283.03
2022-07-25T22:07:05.264Z,101280.56
2022-07-25T22:09:32.095Z,101281.41
2022-07-25T22:11:58.997Z,101289.00
2022-07-25T22:14:25.558Z,101279.28
2022-07-25T22:16:52.319Z,101287.41
2022-07-25T22:19:22.337Z,101289.97
2022-07-25T22:21:49.700Z,101284.16
2022-07-25T22:24:16.806Z,101284.81
2022-07-25T22:26:43.509Z,101285.94
2022-07-25T22:29:10.967Z,101287.22
2022-07-25T22:31:40.787Z,101301.31
2022-07-25T22:34:07.543Z,101296.63
2022-07-25T22:36:34.048Z,101295.00
2022-07-25T22:39:00.588Z,101294.66
2022-07-25T22:41:27.771Z,101297.75
2022-07-25T22:43:57.689Z,101296.09
2022-07-25T22:46:27.024Z,101296.94
2022-07-25T22:48:53.698Z,101294.19
2022-07-25T22:51:20.265Z,101295.94
2022-07-25T22:53:46.788Z,101295.63
2022-07-25T22:56:13.320Z,101299.19
2022-07-25T22:58:39.899Z,101298.69
2022-07-25T23:01:06.779Z,101299.50
2022-07-25T23:03:33.670Z,101303.38
2022-07-25T23:06:00.396Z,101301.75
2022-07-25T23:08:26.947Z,101305.81
2022-07-25T23:10:53.521Z,101307.44
2022-07-25T23:13:20.822Z,101304.19
2022-07-25T23:15:49.393Z,101297.88
2022-07-25T23:18:17.010Z,101297.88
2022-07-25T23:20:43.625Z,101302.56
2022-07-25T23:23:10.197Z,101309.22
2022-07-25T23:25:36.783Z,101307.25
2022-07-25T23:28:03.389Z,101307.25
2022-07-25T23:30:30.059Z,101306.13
2022-07-25T23:32:56.768Z,101301.56
2022-07-25T23:35:23.628Z,101309.50
2022-07-25T23:37:50.195Z,101313.38
2022-07-25T23:40:16.752Z,101314.19
2022-07-25T23:42:43.289Z,101303.00
2022-07-25T23:45:10.698Z,101316.13
2022-07-25T23:47:39.341Z,101325.03
2022-07-25T23:50:08.075Z,101318.91
2022-07-25T23:52:34.610Z,101320.03
2022-07-25T23:55:01.127Z,101332.97
2022-07-25T23:57:27.677Z,101328.91
2022-07-25T23:59:54.212Z,101331.34
